createdAt,value
2023-03-11T00:00:36.108Z,97504.14
2023-03-11T00:03:07.876Z,97498.61
2023-03-11T00:05:38.151Z,97499.86
2023-03-11T00:08:05.765Z,97503.83
2023-03-11T00:10:35.505Z,97500.86
2023-03-11T00:13:04.357Z,97497.51
2023-03-11T00:15:32.421Z,97494.71
2023-03-11T00:17:59.691Z,97491.45
2023-03-11T00:20:33.270Z,97489.41
2023-03-11T00:23:01.247Z,97492.92
2023-03-11T00:25:30.435Z,97491.36
2023-03-11T00:27:57.903Z,97490.96
2023-03-11T00:30:25.740Z,97489.80
2023-03-11T00:32:55.873Z,97487.85
2023-03-11T00:35:25.044Z,97483.48
2023-03-11T00:37:57.842Z,97480.08
2023-03-11T00:40:27.303Z,97475.56
2023-03-11T00:42:54.341Z,97473.45
2023-03-11T00:45:21.878Z,97474.00
2023-03-11T00:47:48.935Z,97471.66
2023-03-11T00:50:25.163Z,97468.78
2023-03-11T00:52:53.899Z,97466.59
2023-03-11T00:55:26.659Z,97468.08
2023-03-11T00:57:56.588Z,97468.55
2023-03-11T01:00:27.903Z,97465.36
2023-03-11T01:02:56.584Z,97462.95
2023-03-11T01:05:26.601Z,97460.44
2023-03-11T01:07:53.346Z,97457.02
2023-03-11T01:10:20.753Z,97451.65
2023-03-11T01:12:47.992Z,97452.50
2023-03-11T01:15:31.213Z,97448.15
2023-03-11T01:18:00.140Z,97445.50
2023-03-11T01:20:27.530Z,97444.09
2023-03-11T01:22:54.483Z,97438.02
2023-03-11T01:25:24.023Z,97440.35
2023-03-11T01:27:51.116Z,97431.77
2023-03-11T01:30:21.560Z,97435.19
2023-03-11T01:32:48.739Z,97430.67
2023-03-11T01:35:18.861Z,97431.08
2023-03-11T01:37:47.372Z,97426.95
2023-03-11T01:40:21.749Z,97424.85
2023-03-11T01:42:48.698Z,97430.92
2023-03-11T01:45:27.702Z,97430.29
2023-03-11T01:47:55.009Z,97425.92
2023-03-11T01:50:22.997Z,97424.92
2023-03-11T01:52:49.889Z,97422.02
2023-03-11T01:55:18.976Z,97421.57
2023-03-11T01:57:48.020Z,97417.50
2023-03-11T02:00:18.355Z,97417.66
2023-03-11T02:02:53.738Z,97418.44
2023-03-11T02:05:22.788Z,97414.33
2023-03-11T02:07:52.770Z,97415.65
2023-03-11T02:10:21.417Z,97418.54
2023-03-11T02:12:50.215Z,97419.33
2023-03-11T02:15:24.656Z,97418.23
2023-03-11T02:17:52.951Z,97413.25
2023-03-11T02:20:32.683Z,97413.95
2023-03-11T02:23:01.157Z,97413.27
2023-03-11T02:25:43.345Z,97413.52
2023-03-11T02:28:14.424Z,97413.98
2023-03-11T02:30:43.457Z,97414.36
2023-03-11T02:33:12.699Z,97410.86
2023-03-11T02:35:39.731Z,97409.70
2023-03-11T02:38:06.763Z,97405.80
2023-03-11T02:40:55.957Z,97408.84
2023-03-11T02:43:34.873Z,97407.35
2023-03-11T02:46:03.059Z,97403.45
2023-03-11T02:48:31.124Z,97406.80
2023-03-11T02:50:59.306Z,97404.53
2023-03-11T02:53:30.569Z,97401.90
2023-03-11T02:55:57.510Z,97402.59
2023-03-11T02:58:24.428Z,97399.70
2023-03-11T03:00:51.615Z,97395.80
2023-03-11T03:03:19.121Z,97394.70
2023-03-11T03:05:47.161Z,97396.25
2023-03-11T03:08:14.184Z,97393.75
2023-03-11T03:10:41.529Z,97394.91
2023-03-11T03:13:09.530Z,97393.17
2023-03-11T03:19:01.668Z,97395.80
2023-03-11T03:21:29.067Z,97395.86
2023-03-11T03:23:56.332Z,97393.59
2023-03-11T03:26:23.247Z,97393.64
2023-03-11T03:28:50.348Z,97391.75
2023-03-11T03:31:17.972Z,97390.16
2023-03-11T03:33:45.469Z,97389.04
2023-03-11T03:36:14.417Z,97383.59
2023-03-11T03:38:56.566Z,97385.52
2023-03-11T03:41:25.550Z,97386.11
2023-03-11T03:43:54.838Z,97387.58
2023-03-11T03:46:22.363Z,97394.55
2023-03-11T03:48:50.036Z,97396.47
2023-03-11T03:51:17.621Z,97394.58
2023-03-11T03:54:00.165Z,97395.96
2023-03-11T03:56:27.546Z,97389.88
2023-03-11T03:58:55.166Z,97385.84
2023-03-11T04:01:23.031Z,97379.75
2023-03-11T04:03:50.522Z,97371.05
2023-03-11T04:06:25.555Z,97363.73
2023-03-11T04:08:57.253Z,97363.40
2023-03-11T04:11:28.114Z,97357.71
2023-03-11T04:13:55.430Z,97356.02
2023-03-11T04:16:24.369Z,97353.52
2023-03-11T04:18:54.175Z,97350.37
2023-03-11T04:21:21.905Z,97354.68
2023-03-11T04:23:49.105Z,97354.71
2023-03-11T04:26:17.202Z,97351.64
2023-03-11T04:28:44.093Z,97353.16
2023-03-11T04:31:12.735Z,97356.42
2023-03-11T04:33:39.747Z,97354.94
2023-03-11T04:36:09.665Z,97353.52
2023-03-11T04:38:37.138Z,97350.17
2023-03-11T04:41:06.170Z,97351.34
2023-03-11T04:43:34.610Z,97349.04
2023-03-11T04:46:01.538Z,97351.23
2023-03-11T04:48:28.846Z,97352.40
2023-03-11T04:50:55.877Z,97359.62
2023-03-11T04:53:24.368Z,97365.44
2023-03-11T04:55:52.588Z,97369.31
2023-03-11T04:58:20.580Z,97364.89
2023-03-11T05:00:47.704Z,97363.11
2023-03-11T05:03:15.027Z,97363.67
2023-03-11T05:05:42.250Z,97364.73
2023-03-11T05:08:09.387Z,97369.61
2023-03-11T05:10:36.903Z,97366.18
2023-03-11T05:13:05.637Z,97365.31
2023-03-11T05:18:16.711Z,97362.23
2023-03-11T05:20:44.116Z,97360.86
2023-03-11T05:23:11.914Z,97352.89
2023-03-11T05:25:39.651Z,97349.35
2023-03-11T05:28:07.294Z,97346.90
2023-03-11T05:30:37.568Z,97344.35
2023-03-11T05:33:04.529Z,97344.77
2023-03-11T05:35:31.571Z,97347.56
2023-03-11T05:37:58.508Z,97348.20
2023-03-11T05:40:27.361Z,97350.23
2023-03-11T05:42:54.305Z,97351.58
2023-03-11T05:45:21.905Z,97348.39
2023-03-11T05:47:49.686Z,97346.30
2023-03-11T05:50:17.157Z,97345.84
2023-03-11T05:52:44.597Z,97347.80
2023-03-11T05:55:12.602Z,97345.92
2023-03-11T05:57:40.993Z,97339.80
2023-03-11T06:00:12.580Z,97340.09
2023-03-11T06:02:45.220Z,97344.46
2023-03-11T06:05:14.489Z,97346.49
2023-03-11T06:07:42.582Z,97349.61
2023-03-11T06:10:10.494Z,97350.23
2023-03-11T06:12:38.859Z,97348.90
2023-03-11T06:15:12.066Z,97351.63
2023-03-11T06:17:39.128Z,97354.52
2023-03-11T06:20:07.708Z,97357.70
2023-03-11T06:22:34.655Z,97360.89
2023-03-11T06:25:01.853Z,97365.17
2023-03-11T06:27:30.787Z,97366.34
2023-03-11T06:29:57.835Z,97371.08
2023-03-11T06:32:25.236Z,97372.73
2023-03-11T06:34:53.560Z,97368.76
2023-03-11T06:37:23.697Z,97370.30
2023-03-11T06:39:54.042Z,97370.54
2023-03-11T06:42:26.867Z,97368.60
2023-03-11T06:44:55.492Z,97364.09
2023-03-11T06:47:22.827Z,97367.83
2023-03-11T06:49:53.425Z,97369.07
2023-03-11T06:52:20.651Z,97374.20
2023-03-11T06:54:47.609Z,97375.45
2023-03-11T06:57:16.556Z,97379.34
2023-03-11T06:59:44.551Z,97378.17
2023-03-11T07:02:15.063Z,97379.34
2023-03-11T07:04:42.157Z,97379.80
2023-03-11T07:07:09.010Z,97371.55
2023-03-11T07:09:35.952Z,97368.88
2023-03-11T07:12:04.440Z,97367.55
2023-03-11T07:14:35.036Z,97367.23
2023-03-11T07:17:02.390Z,97370.17
2023-03-11T07:19:33.923Z,97374.60
2023-03-11T07:22:00.844Z,97379.67
2023-03-11T07:24:27.792Z,97389.65
2023-03-11T07:26:54.702Z,97393.77
2023-03-11T07:29:21.580Z,97400.08
2023-03-11T07:31:49.335Z,97400.94
2023-03-11T07:34:16.630Z,97400.09
2023-03-11T07:36:43.702Z,97397.98
2023-03-11T07:39:15.444Z,97403.05
2023-03-11T07:41:42.688Z,97408.75
2023-03-11T07:44:12.896Z,97411.40
2023-03-11T07:46:39.846Z,97408.28
2023-03-11T07:49:07.640Z,97409.77
2023-03-11T07:51:37.243Z,97413.03
2023-03-11T07:54:04.538Z,97418.26
2023-03-11T07:56:33.840Z,97417.95
2023-03-11T07:59:02.746Z,97421.91
2023-03-11T08:01:36.583Z,97426.42
2023-03-11T08:04:06.512Z,97428.07
2023-03-11T08:06:35.190Z,97429.30
2023-03-11T08:09:05.384Z,97429.23
2023-03-11T08:11:32.786Z,97426.34
2023-03-11T08:13:59.926Z,97426.04
2023-03-11T08:16:27.746Z,97424.23
2023-03-11T08:18:55.449Z,97424.70
2023-03-11T08:21:25.466Z,97430.00
2023-03-11T08:23:52.251Z,97429.45
2023-03-11T08:26:22.186Z,97431.64
2023-03-11T08:28:49.686Z,97432.96
2023-03-11T08:31:18.915Z,97430.24
2023-03-11T08:33:47.696Z,97427.59
2023-03-11T08:36:14.810Z,97424.32
2023-03-11T08:38:42.407Z,97428.44
2023-03-11T08:41:09.562Z,97424.95
2023-03-11T08:43:36.481Z,97433.44
2023-03-11T08:46:07.173Z,97437.00
2023-03-11T08:48:36.779Z,97439.58
2023-03-11T08:51:10.327Z,97439.81
2023-03-11T08:53:38.065Z,97440.45
2023-03-11T08:56:05.875Z,97444.26
2023-03-11T08:58:32.761Z,97455.93
2023-03-11T09:00:59.786Z,97455.45
2023-03-11T09:03:30.959Z,97464.34
2023-03-11T09:06:03.297Z,97466.98
2023-03-11T09:08:30.509Z,97471.02
2023-03-11T09:10:57.432Z,97479.42
2023-03-11T09:13:24.417Z,97472.50
2023-03-11T09:15:52.237Z,97470.77
2023-03-11T09:18:20.158Z,97473.50
2023-03-11T09:20:47.456Z,97476.52
2023-03-11T09:23:17.551Z,97474.73
2023-03-11T09:25:45.158Z,97484.67
2023-03-11T09:28:12.052Z,97484.05
2023-03-11T09:30:39.109Z,97484.75
2023-03-11T09:33:06.270Z,97479.63
2023-03-11T09:35:33.573Z,97488.80
2023-03-11T09:38:00.980Z,97492.54
2023-03-11T09:40:42.269Z,97492.23
2023-03-11T09:43:26.100Z,97493.64
2023-03-11T09:46:12.086Z,97497.75
2023-03-11T09:48:50.029Z,97497.89
2023-03-11T09:51:24.629Z,97503.27
2023-03-11T09:53:57.930Z,97504.51
2023-03-11T09:56:26.062Z,97507.54
2023-03-11T09:59:05.876Z,97515.39
2023-03-11T10:01:40.648Z,97517.09
2023-03-11T10:04:16.904Z,97513.28
2023-03-11T10:06:47.044Z,97514.14
2023-03-11T10:09:13.802Z,97517.17
2023-03-11T10:12:08.371Z,97525.89
2023-03-11T10:14:39.983Z,97524.80
2023-03-11T10:17:21.921Z,97529.92
2023-03-11T10:19:54.177Z,97530.23
2023-03-11T10:22:32.729Z,97529.95
2023-03-11T10:25:06.198Z,97540.34
2023-03-11T10:27:48.784Z,97544.18
2023-03-11T10:30:15.679Z,97547.48
2023-03-11T10:32:51.460Z,97549.77
2023-03-11T10:35:24.361Z,97556.26
2023-03-11T10:38:04.230Z,97556.67
2023-03-11T10:40:34.826Z,97566.95
2023-03-11T10:43:13.287Z,97580.09
2023-03-11T10:45:45.037Z,97589.56
2023-03-11T10:48:14.806Z,97599.84
2023-03-11T10:50:57.167Z,97615.55
2023-03-11T10:53:24.222Z,97620.88
2023-03-11T10:55:56.809Z,97635.52
2023-03-11T10:58:30.182Z,97637.58
2023-03-11T11:01:21.942Z,97648.39
2023-03-11T11:03:52.288Z,97666.41
2023-03-11T11:06:27.381Z,97678.58
2023-03-11T11:09:21.342Z,97677.80
2023-03-11T11:12:00.779Z,97691.86
2023-03-11T11:14:42.688Z,97697.45
2023-03-11T11:17:33.272Z,97699.47
2023-03-11T11:20:13.101Z,97700.19
2023-03-11T11:22:49.383Z,97711.63
2023-03-11T11:25:59.083Z,97711.81
2023-03-11T11:28:27.036Z,97726.15
2023-03-11T11:31:19.032Z,97741.04
2023-03-11T11:33:55.452Z,97747.70
2023-03-11T11:36:32.402Z,97754.45
2023-03-11T11:39:05.176Z,97753.39
2023-03-11T11:41:36.371Z,97756.88
2023-03-11T11:44:09.842Z,97757.73
2023-03-11T11:46:58.087Z,97769.33
2023-03-11T11:49:29.698Z,97768.03
2023-03-11T11:52:10.014Z,97772.23
2023-03-11T11:54:46.484Z,97779.00
2023-03-11T11:57:16.111Z,97784.39
2023-03-11T11:59:44.684Z,97787.25
2023-03-11T12:02:33.509Z,97802.87
2023-03-11T12:05:19.959Z,97818.23
2023-03-11T12:07:49.845Z,97830.82
2023-03-11T12:11:02.226Z,97836.10
2023-03-11T12:13:48.324Z,97845.33
2023-03-11T12:16:18.623Z,97855.48
2023-03-11T12:18:54.598Z,97854.30
2023-03-11T12:21:44.163Z,97865.66
2023-03-11T12:24:31.193Z,97876.41
2023-03-11T12:27:03.850Z,97881.02
2023-03-11T12:30:03.194Z,97889.05
2023-03-11T12:32:44.586Z,97905.27
2023-03-11T12:35:27.938Z,97908.09
2023-03-11T12:38:13.453Z,97917.46
2023-03-11T12:41:03.263Z,97926.11
2023-03-11T12:43:35.881Z,97931.86
2023-03-11T12:46:10.198Z,97938.75
2023-03-11T12:49:07.532Z,97946.93
2023-03-11T12:51:39.426Z,97955.98
2023-03-11T12:54:32.419Z,97960.35
2023-03-11T12:57:09.983Z,97968.33
2023-03-11T13:00:12.452Z,97970.13
2023-03-11T13:02:48.722Z,97976.08
2023-03-11T13:05:18.418Z,97987.42
2023-03-11T13:08:10.238Z,97994.47
2023-03-11T13:10:43.287Z,98001.01
2023-03-11T13:13:42.778Z,98003.83
2023-03-11T13:16:12.617Z,98016.67
2023-03-11T13:18:40.645Z,98022.80
2023-03-11T13:21:39.720Z,98027.91
2023-03-11T13:24:22.268Z,98042.66
2023-03-11T13:27:04.499Z,98051.51
2023-03-11T13:29:47.067Z,98057.77
2023-03-11T13:32:32.968Z,98057.20
2023-03-11T13:35:32.464Z,98060.58
2023-03-11T13:38:32.139Z,98064.88
2023-03-11T13:41:02.275Z,98077.76
2023-03-11T13:43:29.429Z,98075.63
2023-03-11T13:46:13.680Z,98086.02
2023-03-11T13:48:47.003Z,98095.23
2023-03-11T13:51:36.827Z,98104.26
2023-03-11T13:54:23.601Z,98124.75
2023-03-11T13:57:03.352Z,98140.37
2023-03-11T13:59:33.879Z,98150.44
2023-03-11T14:02:20.210Z,98155.70
2023-03-11T14:04:57.795Z,98155.23
2023-03-11T14:07:30.444Z,98166.39
2023-03-11T14:10:20.623Z,98173.89
2023-03-11T14:12:47.699Z,98180.42
2023-03-11T14:15:23.524Z,98183.70
2023-03-11T14:17:54.461Z,98201.39
2023-03-11T14:20:25.610Z,98205.36
2023-03-11T14:22:55.174Z,98212.00
2023-03-11T14:25:31.513Z,98223.27
2023-03-11T14:28:04.996Z,98214.26
2023-03-11T14:30:33.939Z,98229.06
2023-03-11T14:33:06.736Z,98243.59
2023-03-11T14:35:37.784Z,98252.80
2023-03-11T14:38:21.849Z,98255.50
2023-03-11T14:40:55.418Z,98257.46
2023-03-11T14:43:22.957Z,98266.58
2023-03-11T14:45:52.891Z,98277.11
2023-03-11T14:48:32.608Z,98274.93
2023-03-11T14:51:02.928Z,98286.38
2023-03-11T14:53:37.973Z,98287.93
2023-03-11T14:56:18.612Z,98298.96
2023-03-11T14:59:06.443Z,98309.34
2023-03-11T15:01:40.826Z,98317.05
2023-03-11T15:04:13.945Z,98317.02
2023-03-11T15:06:43.766Z,98333.29
2023-03-11T15:09:10.449Z,98337.82
2023-03-11T15:11:59.379Z,98338.98
2023-03-11T15:14:32.062Z,98343.98
2023-03-11T15:17:33.011Z,98350.27
2023-03-11T15:20:02.691Z,98356.64
2023-03-11T15:22:36.495Z,98366.75
2023-03-11T15:25:14.712Z,98367.42
2023-03-11T15:27:42.069Z,98377.80
2023-03-11T15:30:31.323Z,98382.85
2023-03-11T15:32:59.409Z,98386.58
2023-03-11T15:35:31.034Z,98387.48
2023-03-11T15:38:21.660Z,98386.75
2023-03-11T15:40:54.643Z,98398.59
2023-03-11T15:43:26.989Z,98403.52
2023-03-11T15:45:56.635Z,98416.14
2023-03-11T15:48:24.462Z,98410.17
2023-03-11T15:50:54.885Z,98415.94
2023-03-11T15:53:24.093Z,98423.01
2023-03-11T15:55:52.889Z,98427.55
2023-03-11T15:58:21.546Z,98431.84
2023-03-11T16:00:51.082Z,98438.29
2023-03-11T16:03:18.771Z,98445.33
2023-03-11T16:05:46.345Z,98455.20
2023-03-11T16:08:13.264Z,98462.90
2023-03-11T16:10:41.073Z,98463.69
2023-03-11T16:13:12.198Z,98478.86
2023-03-11T16:15:39.285Z,98477.75
2023-03-11T16:18:08.941Z,98485.88
2023-03-11T16:20:44.927Z,98491.08
2023-03-11T16:23:21.524Z,98495.35
2023-03-11T16:25:49.485Z,98512.51
2023-03-11T16:28:17.585Z,98514.66
2023-03-11T16:30:45.391Z,98519.73
2023-03-11T16:33:12.309Z,98520.66
2023-03-11T16:35:39.345Z,98527.20
2023-03-11T16:38:08.224Z,98536.23
2023-03-11T16:40:35.400Z,98541.94
2023-03-11T16:43:07.253Z,98549.80
2023-03-11T16:45:34.489Z,98556.42
2023-03-11T16:48:01.564Z,98566.35
2023-03-11T16:50:28.730Z,98569.52
2023-03-11T16:52:56.899Z,98570.67
2023-03-11T16:55:25.686Z,98578.85
2023-03-11T16:57:54.882Z,98586.30
2023-03-11T17:00:22.311Z,98592.27
2023-03-11T17:02:49.626Z,98601.74
2023-03-11T17:05:16.966Z,98612.66
2023-03-11T17:07:44.038Z,98614.11
2023-03-11T17:10:12.434Z,98626.82
2023-03-11T17:12:39.429Z,98629.17
2023-03-11T17:15:07.693Z,98631.20
2023-03-11T17:17:34.800Z,98638.40
2023-03-11T17:20:01.986Z,98640.08
2023-03-11T17:22:29.026Z,98647.35
2023-03-11T17:24:57.964Z,98656.00
2023-03-11T17:27:26.366Z,98657.37
2023-03-11T17:29:55.330Z,98663.74
2023-03-11T17:32:22.379Z,98662.06
2023-03-11T17:34:49.401Z,98664.02
2023-03-11T17:37:16.346Z,98664.17
2023-03-11T17:39:43.614Z,98674.45
2023-03-11T17:42:10.585Z,98680.02
2023-03-11T17:44:50.541Z,98682.73
2023-03-11T17:47:20.309Z,98687.00
2023-03-11T17:49:48.806Z,98696.19
2023-03-11T17:52:15.692Z,98695.55
2023-03-11T17:54:42.898Z,98687.73
2023-03-11T17:57:09.755Z,98712.04
2023-03-11T17:59:36.601Z,98712.30
2023-03-11T18:02:03.942Z,98711.55
2023-03-11T18:04:31.007Z,98717.33
2023-03-11T18:06:58.044Z,98723.55
2023-03-11T18:09:24.922Z,98725.25
2023-03-11T18:11:51.865Z,98730.65
2023-03-11T18:14:18.920Z,98740.09
2023-03-11T18:16:45.990Z,98745.94
2023-03-11T18:19:13.134Z,98744.06
2023-03-11T18:21:40.167Z,98748.77
2023-03-11T18:24:10.696Z,98757.06
2023-03-11T18:26:37.957Z,98752.84
2023-03-11T18:29:04.917Z,98760.60
2023-03-11T18:31:32.522Z,98769.59
2023-03-11T18:34:03.150Z,98777.20
2023-03-11T18:36:33.417Z,98783.81
2023-03-11T18:39:01.697Z,98785.00
2023-03-11T18:41:31.881Z,98792.68
2023-03-11T18:43:59.835Z,98803.61
2023-03-11T18:46:29.351Z,98806.58
2023-03-11T18:48:57.925Z,98812.48
2023-03-11T18:51:30.825Z,98811.84
2023-03-11T18:53:57.876Z,98812.00
2023-03-11T18:56:24.776Z,98811.38
2023-03-11T18:58:51.583Z,98818.61
2023-03-11T19:01:21.762Z,98833.90
2023-03-11T19:03:51.598Z,98838.63
2023-03-11T19:06:18.576Z,98841.90
2023-03-11T19:08:46.008Z,98841.30
2023-03-11T19:11:16.505Z,98845.19
2023-03-11T19:13:47.925Z,98846.48
2023-03-11T19:16:20.861Z,98852.98
2023-03-11T19:18:51.590Z,98856.60
2023-03-11T19:21:18.840Z,98867.77
2023-03-11T19:23:46.175Z,98866.89
2023-03-11T19:26:14.116Z,98875.94
2023-03-11T19:28:41.105Z,98881.58
2023-03-11T19:31:08.147Z,98884.18
2023-03-11T19:33:35.243Z,98893.12
2023-03-11T19:36:05.143Z,98897.64
2023-03-11T19:38:33.052Z,98904.43
2023-03-11T19:41:14.467Z,98909.23
2023-03-11T19:43:42.217Z,98913.92
2023-03-11T19:46:12.753Z,98920.27
2023-03-11T19:48:39.743Z,98923.43
2023-03-11T19:51:06.957Z,98927.48
2023-03-11T19:53:36.705Z,98933.85
2023-03-11T19:56:04.939Z,98943.88
2023-03-11T19:58:32.619Z,98942.69
2023-03-11T20:01:02.227Z,98948.23
2023-03-11T20:03:29.978Z,98949.11
2023-03-11T20:05:58.136Z,98955.11
2023-03-11T20:08:26.571Z,98958.01
2023-03-11T20:10:54.244Z,98963.72
2023-03-11T20:13:22.100Z,98969.91
2023-03-11T20:15:50.100Z,98963.71
2023-03-11T20:18:18.326Z,98970.98
2023-03-11T20:20:46.938Z,98977.30
2023-03-11T20:23:14.081Z,98979.41
2023-03-11T20:25:42.344Z,98980.05
2023-03-11T20:28:09.918Z,98982.88
2023-03-11T20:30:38.865Z,98984.69
2023-03-11T20:33:07.062Z,98982.46
2023-03-11T20:35:34.319Z,98989.33
2023-03-11T20:38:03.142Z,98987.12
2023-03-11T20:40:31.356Z,98995.58
2023-03-11T20:42:58.544Z,98995.13
2023-03-11T20:45:25.490Z,98999.86
2023-03-11T20:47:54.188Z,98991.75
2023-03-11T20:50:22.335Z,98999.47
2023-03-11T20:52:50.906Z,99003.48
2023-03-11T20:55:18.732Z,99006.98
2023-03-11T20:57:46.022Z,99012.25
2023-03-11T21:00:14.125Z,99021.42
2023-03-11T21:02:43.031Z,99023.95
2023-03-11T21:05:11.664Z,99020.52
2023-03-11T21:07:39.368Z,99026.52
2023-03-11T21:10:10.748Z,99025.77
2023-03-11T21:12:40.817Z,99034.66
2023-03-11T21:15:09.647Z,99030.44
2023-03-11T21:17:37.450Z,99033.70
2023-03-11T21:20:06.644Z,99032.83
2023-03-11T21:22:34.010Z,99035.20
2023-03-11T21:25:01.116Z,99038.73
2023-03-11T21:27:28.154Z,99040.91
2023-03-11T21:29:55.981Z,99043.88
2023-03-11T21:32:24.061Z,99036.38
2023-03-11T21:34:51.362Z,99041.90
2023-03-11T21:37:18.342Z,99042.39
2023-03-11T21:39:45.177Z,99036.96
2023-03-11T21:42:12.461Z,99047.66
2023-03-11T21:44:39.497Z,99052.06
2023-03-11T21:47:06.728Z,99057.40
2023-03-11T21:49:36.284Z,99059.35
2023-03-11T21:52:03.318Z,99061.17
2023-03-11T21:54:30.352Z,99063.16
2023-03-11T21:56:57.499Z,99066.89
2023-03-11T21:59:29.204Z,99074.30
2023-03-11T22:02:01.486Z,99074.27
2023-03-11T22:04:30.086Z,99090.61
2023-03-11T22:06:57.776Z,99088.70
2023-03-11T22:09:26.413Z,99086.02
2023-03-11T22:11:56.434Z,99085.59
2023-03-11T22:14:25.049Z,99090.44
2023-03-11T22:16:52.783Z,99089.02
2023-03-11T22:19:20.115Z,99092.23
2023-03-11T22:21:49.001Z,99094.52
2023-03-11T22:24:16.798Z,99095.70
2023-03-11T22:26:44.244Z,99099.61
2023-03-11T22:29:13.549Z,99097.34
2023-03-11T22:31:40.960Z,99101.27
2023-03-11T22:34:10.828Z,99102.25
2023-03-11T22:36:37.664Z,99108.15
2023-03-11T22:39:05.118Z,99109.89
2023-03-11T22:41:33.223Z,99115.42
2023-03-11T22:44:00.357Z,99107.16
2023-03-11T22:46:28.004Z,99114.97
2023-03-11T22:48:55.628Z,99118.66
2023-03-11T22:51:23.053Z,99112.65
2023-03-11T22:53:49.912Z,99116.48
2023-03-11T22:56:17.684Z,99120.19
2023-03-11T22:58:45.329Z,99122.30
2023-03-11T23:01:12.694Z,99125.25
2023-03-11T23:03:40.204Z,99129.98
2023-03-11T23:06:10.974Z,99129.71
2023-03-11T23:08:38.029Z,99127.60
2023-03-11T23:11:08.028Z,99130.59
2023-03-11T23:13:36.162Z,99127.83
2023-03-11T23:16:06.262Z,99133.92
2023-03-11T23:18:34.343Z,99135.03
2023-03-11T23:21:01.352Z,99135.83
2023-03-11T23:23:28.425Z,99145.03
2023-03-11T23:25:55.568Z,99145.34
2023-03-11T23:28:22.636Z,99143.95
2023-03-11T23:30:49.867Z,99146.95
2023-03-11T23:33:16.830Z,99145.52
2023-03-11T23:35:44.121Z,99146.55
2023-03-11T23:38:11.097Z,99147.95
2023-03-11T23:40:40.997Z,99146.14
2023-03-11T23:43:08.025Z,99157.38
2023-03-11T23:45:34.977Z,99153.93
2023-03-11T23:48:01.909Z,99155.04
2023-03-11T23:50:28.751Z,99160.70
2023-03-11T23:52:55.655Z,99162.54
2023-03-11T23:55:22.554Z,99167.80
2023-03-11T23:57:49.594Z,99163.91
